createdAt,value
2022-12-17T03:59:19.508Z,0.00
2022-12-17T04:00:19.598Z,0.00
2022-12-17T04:01:19.899Z,0.00
2022-12-17T04:02:20.115Z,0.00
2022-12-17T04:03:20.070Z,0.00
2022-12-17T04:04:20.128Z,0.00
2022-12-17T04:05:20.661Z,0.00
2022-12-17T04:06:20.420Z,0.00
2022-12-17T04:07:20.587Z,0.00
2022-12-17T04:08:20.704Z,0.00
2022-12-17T04:09:20.816Z,0.00
2022-12-17T04:10:20.952Z,0.00
2022-12-17T04:11:21.094Z,0.00
2022-12-17T04:12:21.215Z,0.00
2022-12-17T04:13:21.390Z,0.00
2022-12-17T04:14:21.485Z,0.00
2022-12-17T04:15:21.635Z,0.00
2022-12-17T04:16:21.745Z,0.00
2022-12-17T04:17:21.866Z,0.00
2022-12-17T04:18:21.987Z,0.00
2022-12-17T04:19:22.107Z,0.00
2022-12-17T04:20:22.225Z,0.00
2022-12-17T04:21:22.379Z,0.00
2022-12-17T04:22:22.538Z,0.00
2022-12-17T04:23:23.585Z,0.00
2022-12-17T04:24:22.796Z,0.00
2022-12-17T04:25:22.908Z,0.00
2022-12-17T04:26:23.034Z,0.00
2022-12-17T04:27:23.173Z,0.00
2022-12-17T04:28:23.357Z,0.00
2022-12-17T04:29:23.486Z,0.00
2022-12-17T04:30:23.542Z,0.00
2022-12-17T04:31:23.783Z,0.00
2022-12-17T04:32:23.782Z,0.00
2022-12-17T04:33:23.901Z,0.00
2022-12-17T04:34:24.034Z,0.00
2022-12-17T04:35:24.195Z,0.00
2022-12-17T04:36:25.281Z,0.00
2022-12-17T04:37:24.452Z,0.00
2022-12-17T04:38:24.580Z,0.00
2022-12-17T04:39:24.709Z,0.00
2022-12-17T04:40:24.823Z,0.00
2022-12-17T04:41:24.930Z,0.00
2022-12-17T04:42:25.056Z,0.00
2022-12-17T04:43:25.160Z,0.00
2022-12-17T04:44:25.259Z,0.00
2022-12-17T04:45:25.369Z,0.00
2022-12-17T04:46:25.534Z,0.00
2022-12-17T04:47:25.659Z,0.00
2022-12-17T04:48:25.772Z,0.00
2022-12-17T04:49:25.839Z,0.00
2022-12-17T04:50:25.958Z,0.00
2022-12-17T04:51:26.098Z,0.00
2022-12-17T04:52:26.219Z,0.00
2022-12-17T04:53:26.360Z,0.00
2022-12-17T04:54:26.508Z,0.00
2022-12-17T04:55:26.632Z,0.00
2022-12-17T04:56:26.725Z,0.00
2022-12-17T04:57:26.847Z,0.00
2022-12-17T04:58:26.986Z,0.00
2022-12-17T04:59:27.137Z,0.00
2022-12-17T05:00:27.246Z,0.00
2022-12-17T05:01:27.441Z,0.00
2022-12-17T05:02:27.664Z,0.00
2022-12-17T05:03:27.722Z,0.00
2022-12-17T05:04:27.796Z,0.00
2022-12-17T05:05:27.895Z,0.00
2022-12-17T05:06:28.025Z,0.00
2022-12-17T05:07:28.136Z,0.00
2022-12-17T05:08:28.287Z,0.00
2022-12-17T05:09:28.389Z,0.00
2022-12-17T05:10:28.514Z,0.00
2022-12-17T05:11:29.594Z,0.00
2022-12-17T05:12:28.778Z,0.00
2022-12-17T05:13:28.923Z,0.00
2022-12-17T05:14:29.044Z,0.00
2022-12-17T05:15:29.155Z,0.00
2022-12-17T05:16:29.369Z,0.00
2022-12-17T05:17:29.405Z,0.00
2022-12-17T05:18:29.586Z,0.00
2022-12-17T05:19:29.632Z,0.00
2022-12-17T05:20:29.764Z,0.00
2022-12-17T05:21:33.303Z,0.00
2022-12-17T05:22:30.015Z,0.00
2022-12-17T05:23:30.136Z,0.00
2022-12-17T05:24:30.242Z,0.00
2022-12-17T05:25:30.352Z,0.00
2022-12-17T05:26:30.504Z,0.00
2022-12-17T05:27:30.617Z,0.00
2022-12-17T05:28:30.770Z,0.00
2022-12-17T05:29:30.859Z,0.00
2022-12-17T05:30:31.008Z,0.00
2022-12-17T05:31:31.142Z,0.00
2022-12-17T05:32:31.232Z,0.00
2022-12-17T05:33:31.362Z,0.00
2022-12-17T05:34:31.508Z,0.00
2022-12-17T05:35:31.615Z,0.00
2022-12-17T05:36:31.786Z,0.00
2022-12-17T05:37:31.906Z,0.00
2022-12-17T05:38:32.031Z,0.00
2022-12-17T05:39:32.186Z,0.00
2022-12-17T05:40:32.300Z,0.00
2022-12-17T05:41:33.356Z,0.00
2022-12-17T05:42:32.561Z,0.00
2022-12-17T05:43:32.859Z,0.00
2022-12-17T05:44:32.808Z,0.00
2022-12-17T05:45:32.899Z,0.00
2022-12-17T05:46:33.139Z,0.00
2022-12-17T05:47:33.169Z,0.00
2022-12-17T05:48:33.297Z,0.00
2022-12-17T05:49:33.410Z,0.00
2022-12-17T05:50:33.531Z,0.00
2022-12-17T05:51:38.493Z,0.00
2022-12-17T05:52:34.746Z,0.00
2022-12-17T05:53:34.415Z,0.00
2022-12-17T05:54:34.018Z,0.00
2022-12-17T05:55:34.116Z,0.00
2022-12-17T05:56:34.295Z,0.00
2022-12-17T05:57:34.396Z,0.00
2022-12-17T05:58:34.521Z,0.00
2022-12-17T05:59:35.576Z,0.00
2022-12-17T06:00:34.802Z,0.00
2022-12-17T06:01:34.974Z,0.00
2022-12-17T06:02:35.149Z,0.00
2022-12-17T06:03:35.870Z,0.00
2022-12-17T06:04:35.336Z,0.00
2022-12-17T06:05:35.474Z,0.00
2022-12-17T06:06:35.564Z,0.00
2022-12-17T06:07:35.707Z,0.00
2022-12-17T06:08:35.837Z,0.00
2022-12-17T06:09:35.984Z,0.00
2022-12-17T06:10:36.102Z,0.00
2022-12-17T06:11:36.219Z,0.00
2022-12-17T06:12:36.343Z,0.00
2022-12-17T06:13:36.798Z,0.00
2022-12-17T06:14:36.594Z,0.00
2022-12-17T06:15:36.782Z,0.00
2022-12-17T06:16:37.000Z,0.00
2022-12-17T06:17:37.025Z,0.00
2022-12-17T06:18:37.164Z,0.00
2022-12-17T06:19:37.317Z,0.00
2022-12-17T06:20:37.391Z,0.00
2022-12-17T06:21:37.502Z,0.00
2022-12-17T06:22:37.600Z,0.00
2022-12-17T06:23:39.085Z,0.00
2022-12-17T06:24:42.657Z,0.00
2022-12-17T06:25:39.061Z,0.00
2022-12-17T06:26:38.221Z,0.00
2022-12-17T06:27:38.329Z,0.00
2022-12-17T06:28:38.424Z,0.00
2022-12-17T06:29:38.544Z,0.00
2022-12-17T06:30:38.668Z,0.00
2022-12-17T06:31:38.828Z,0.00
2022-12-17T06:32:38.929Z,0.00
2022-12-17T06:33:39.315Z,0.00
2022-12-17T06:34:39.210Z,0.00
2022-12-17T06:35:39.347Z,0.00
2022-12-17T06:36:39.420Z,0.00
2022-12-17T06:37:39.586Z,0.00
2022-12-17T06:38:39.680Z,0.00
2022-12-17T06:39:40.748Z,0.00
2022-12-17T06:40:39.990Z,0.00
2022-12-17T06:41:40.127Z,0.00
2022-12-17T06:42:40.275Z,0.00
2022-12-17T06:43:40.365Z,0.00
2022-12-17T06:44:40.482Z,0.00
2022-12-17T06:45:40.608Z,0.00
2022-12-17T06:46:40.792Z,0.00
2022-12-17T06:47:40.830Z,0.00
2022-12-17T06:48:40.957Z,0.00
2022-12-17T06:49:41.086Z,0.00
2022-12-17T06:50:41.228Z,0.00
2022-12-17T06:51:41.376Z,0.00
2022-12-17T06:52:41.496Z,0.00
2022-12-17T06:53:41.627Z,0.00
2022-12-17T06:54:41.748Z,0.00
2022-12-17T06:55:41.913Z,0.00
2022-12-17T06:56:42.009Z,0.00
2022-12-17T06:57:45.160Z,0.00
2022-12-17T06:58:43.244Z,0.00
2022-12-17T06:59:42.387Z,0.00
2022-12-17T07:00:42.606Z,0.00
2022-12-17T07:01:42.826Z,0.00
2022-12-17T07:02:42.937Z,0.00
2022-12-17T07:03:42.882Z,0.00
2022-12-17T07:04:43.027Z,0.00
2022-12-17T07:05:43.169Z,0.00
2022-12-17T07:06:43.236Z,1.00
2022-12-17T07:07:43.692Z,0.00
2022-12-17T07:08:44.348Z,0.00
2022-12-17T07:09:43.680Z,0.00
2022-12-17T07:10:43.723Z,1.00
2022-12-17T07:11:43.871Z,1.00
2022-12-17T07:12:43.970Z,1.00
2022-12-17T07:13:44.072Z,2.00
2022-12-17T07:14:44.223Z,2.00
2022-12-17T07:15:44.429Z,0.00
2022-12-17T07:16:45.430Z,2.00
2022-12-17T07:17:45.521Z,2.00
2022-12-17T07:18:44.712Z,3.00
2022-12-17T07:19:45.042Z,3.00
2022-12-17T07:20:44.981Z,1.00
2022-12-17T07:21:45.081Z,3.00
2022-12-17T07:22:45.211Z,3.00
2022-12-17T07:23:45.311Z,3.00
2022-12-17T07:24:46.390Z,2.00
2022-12-17T07:25:46.542Z,4.00
2022-12-17T07:26:45.680Z,4.00
2022-12-17T07:27:45.829Z,7.00
2022-12-17T07:28:45.965Z,5.00
2022-12-17T07:29:46.098Z,5.00
2022-12-17T07:30:49.176Z,7.00
2022-12-17T07:31:47.474Z,6.00
2022-12-17T07:32:46.484Z,9.00
2022-12-17T07:33:46.601Z,8.00
2022-12-17T07:34:46.726Z,10.00
2022-12-17T07:35:46.848Z,9.00
2022-12-17T07:36:46.981Z,11.00
2022-12-17T07:37:47.158Z,12.00
2022-12-17T07:38:47.245Z,14.00
2022-12-17T07:39:47.312Z,17.00
2022-12-17T07:40:47.457Z,17.00
2022-12-17T07:41:47.559Z,17.00
2022-12-17T07:42:47.707Z,18.00
2022-12-17T07:43:52.749Z,18.00
2022-12-17T07:44:48.966Z,19.00
2022-12-17T07:45:48.109Z,22.00
2022-12-17T07:46:48.209Z,22.00
2022-12-17T07:47:49.044Z,22.00
2022-12-17T07:48:49.203Z,23.00
2022-12-17T07:49:49.514Z,23.00
2022-12-17T07:50:49.548Z,26.00
2022-12-17T07:51:49.692Z,27.00
2022-12-17T07:52:49.584Z,28.00
2022-12-17T07:53:49.037Z,29.00
2022-12-17T07:54:49.155Z,29.00
2022-12-17T07:55:49.306Z,30.00
2022-12-17T07:56:49.388Z,30.00
2022-12-17T07:57:50.384Z,33.00
2022-12-17T07:58:49.612Z,35.00
2022-12-17T07:59:50.673Z,37.00
2022-12-17T08:00:49.980Z,42.00
2022-12-17T08:01:50.124Z,42.00
2022-12-17T08:02:50.192Z,41.00
2022-12-17T08:03:50.270Z,45.00
2022-12-17T08:04:50.384Z,46.00
2022-12-17T08:05:50.530Z,45.00
2022-12-17T08:06:50.666Z,47.00
2022-12-17T08:07:50.792Z,48.00
2022-12-17T08:08:50.952Z,52.00
2022-12-17T08:09:51.122Z,53.00
2022-12-17T08:10:51.268Z,61.00
2022-12-17T08:11:51.341Z,63.00
2022-12-17T08:12:51.449Z,64.00
2022-12-17T08:13:51.546Z,62.00
2022-12-17T08:14:51.732Z,71.00
2022-12-17T08:15:51.801Z,78.00
2022-12-17T08:16:52.717Z,76.00
2022-12-17T08:17:52.102Z,69.00
2022-12-17T08:18:52.231Z,67.00
2022-12-17T08:19:53.141Z,79.00
2022-12-17T08:20:53.319Z,76.00
2022-12-17T08:21:53.471Z,87.00
2022-12-17T08:22:52.780Z,78.00
2022-12-17T08:23:53.849Z,84.00
2022-12-17T08:24:53.000Z,88.00
2022-12-17T08:25:53.101Z,93.00
2022-12-17T08:26:53.259Z,108.00
2022-12-17T08:27:54.163Z,109.00
2022-12-17T08:28:53.968Z,106.00
2022-12-17T08:29:53.619Z,99.00
2022-12-17T08:30:53.807Z,105.00
2022-12-17T08:31:53.880Z,106.00
2022-12-17T08:32:54.049Z,93.00
2022-12-17T08:33:54.188Z,119.00
2022-12-17T08:34:54.339Z,101.00
2022-12-17T08:35:54.459Z,107.00
2022-12-17T08:36:54.618Z,92.00
2022-12-17T08:37:54.719Z,104.00
2022-12-17T08:38:54.899Z,115.00
2022-12-17T08:39:55.005Z,122.00
2022-12-17T08:40:55.162Z,114.00
2022-12-17T08:41:58.356Z,113.00
2022-12-17T08:42:56.367Z,136.00
2022-12-17T08:43:55.530Z,122.00
2022-12-17T08:44:55.629Z,117.00
2022-12-17T08:45:55.851Z,157.00
2022-12-17T08:46:55.877Z,135.00
2022-12-17T08:47:59.201Z,126.00
2022-12-17T08:48:57.127Z,174.00
2022-12-17T08:49:56.235Z,155.00
2022-12-17T08:50:56.375Z,140.00
2022-12-17T08:51:56.465Z,148.00
2022-12-17T08:52:56.612Z,167.00
2022-12-17T08:53:56.734Z,158.00
2022-12-17T08:54:56.836Z,151.00
2022-12-17T08:55:56.978Z,154.00
2022-12-17T08:56:57.108Z,177.00
2022-12-17T08:57:58.196Z,172.00
2022-12-17T08:58:59.273Z,184.00
2022-12-17T08:59:57.494Z,182.00
2022-12-17T09:00:57.665Z,225.00
2022-12-17T09:01:57.806Z,227.00
2022-12-17T09:02:57.954Z,209.00
2022-12-17T09:03:57.954Z,200.00
2022-12-17T09:04:58.052Z,192.00
2022-12-17T09:05:58.252Z,190.00
2022-12-17T09:06:58.321Z,210.00
2022-12-17T09:07:58.403Z,192.00
2022-12-17T09:08:58.529Z,159.00
2022-12-17T09:09:58.662Z,196.00
2022-12-17T09:10:58.823Z,216.00
2022-12-17T09:11:59.021Z,235.00
2022-12-17T09:13:04.370Z,232.00
2022-12-17T09:14:01.155Z,245.00
2022-12-17T09:14:59.350Z,211.00
2022-12-17T09:15:59.454Z,270.00
2022-12-17T09:16:59.672Z,239.00
2022-12-17T09:17:59.693Z,194.00
2022-12-17T09:18:59.818Z,226.00
2022-12-17T09:19:59.940Z,248.00
2022-12-17T09:21:00.094Z,211.00
2022-12-17T09:22:00.230Z,267.00
2022-12-17T09:23:00.321Z,225.00
2022-12-17T09:24:00.483Z,209.00
2022-12-17T09:25:00.780Z,213.00
2022-12-17T09:26:00.711Z,201.00
2022-12-17T09:27:01.003Z,206.00
2022-12-17T09:28:01.719Z,224.00
2022-12-17T09:29:01.122Z,333.00
2022-12-17T09:30:01.302Z,283.00
2022-12-17T09:31:02.240Z,254.00
2022-12-17T09:32:02.357Z,320.00
2022-12-17T09:33:01.579Z,240.00
2022-12-17T09:34:01.706Z,399.00
2022-12-17T09:35:01.820Z,319.00
2022-12-17T09:36:01.916Z,300.00
2022-12-17T09:37:02.068Z,396.00
2022-12-17T09:38:02.212Z,399.00
2022-12-17T09:39:02.328Z,357.00
2022-12-17T09:40:02.475Z,373.00
2022-12-17T09:41:02.630Z,402.00
2022-12-17T09:42:02.789Z,376.00
2022-12-17T09:43:02.885Z,340.00
2022-12-17T09:44:02.975Z,429.00
2022-12-17T09:45:03.128Z,352.00
2022-12-17T09:46:03.351Z,322.00
2022-12-17T09:47:03.468Z,385.00
2022-12-17T09:48:03.538Z,458.00
2022-12-17T09:49:03.704Z,382.00
2022-12-17T09:50:03.794Z,328.00
2022-12-17T09:51:03.935Z,413.00
2022-12-17T09:52:04.075Z,343.00
2022-12-17T09:53:04.224Z,455.00
2022-12-17T09:54:04.373Z,329.00
2022-12-17T09:55:04.530Z,335.00
2022-12-17T09:56:04.643Z,419.00
2022-12-17T09:57:05.583Z,358.00
2022-12-17T09:58:05.770Z,389.00
2022-12-17T09:59:05.915Z,430.00
2022-12-17T10:00:06.066Z,253.00
2022-12-17T10:01:06.256Z,366.00
2022-12-17T10:02:06.384Z,418.00
2022-12-17T10:13:22.866Z,330.00
2022-12-17T10:14:22.956Z,316.00
2022-12-17T10:15:23.135Z,377.00
2022-12-17T10:16:23.271Z,364.00
2022-12-17T10:17:23.373Z,337.00
2022-12-17T10:18:23.515Z,426.00
2022-12-17T10:19:23.661Z,390.00
2022-12-17T10:20:23.801Z,379.00
2022-12-17T10:21:23.932Z,473.00
2022-12-17T10:22:24.042Z,447.00
2022-12-17T10:23:24.197Z,376.00
2022-12-17T10:24:24.281Z,462.00
2022-12-17T10:25:24.433Z,453.00
2022-12-17T10:26:24.590Z,502.00
2022-12-17T10:27:24.710Z,483.00
2022-12-17T10:28:24.830Z,490.00
2022-12-17T10:29:24.895Z,463.00
2022-12-17T10:30:25.059Z,504.00
2022-12-17T10:31:25.195Z,482.00
2022-12-17T10:32:25.280Z,584.00
2022-12-17T10:33:25.370Z,435.00
2022-12-17T10:34:25.513Z,536.00
2022-12-17T10:35:25.672Z,520.00
2022-12-17T10:36:25.769Z,492.00
2022-12-17T10:37:25.858Z,422.00
2022-12-17T10:38:25.990Z,595.00
2022-12-17T10:39:26.118Z,441.00
2022-12-17T10:40:26.289Z,634.00
2022-12-17T10:41:26.358Z,501.00
2022-12-17T10:42:29.053Z,526.00
2022-12-17T10:43:27.630Z,684.00
2022-12-17T10:44:26.763Z,466.00
2022-12-17T10:45:26.888Z,575.00
2022-12-17T10:46:27.096Z,373.00
2022-12-17T10:47:27.118Z,488.00
2022-12-17T10:48:27.198Z,335.00
2022-12-17T10:49:27.328Z,379.00
2022-12-17T10:50:27.501Z,483.00
2022-12-17T10:51:27.640Z,430.00
2022-12-17T10:52:27.782Z,743.00
2022-12-17T10:53:27.872Z,493.00
2022-12-17T10:54:28.005Z,686.00
2022-12-17T10:55:28.147Z,594.00
2022-12-17T10:56:28.382Z,659.00
2022-12-17T10:57:29.262Z,372.00
2022-12-17T10:58:28.521Z,452.00
2022-12-17T10:59:28.663Z,452.00
2022-12-17T11:00:29.493Z,358.00
2022-12-17T11:01:29.758Z,380.00
2022-12-17T11:02:29.248Z,400.00
2022-12-17T11:03:29.173Z,461.00
2022-12-17T11:04:30.128Z,426.00
2022-12-17T11:05:29.352Z,523.00
2022-12-17T11:06:29.460Z,383.00
2022-12-17T11:07:29.612Z,490.00
2022-12-17T11:08:29.758Z,459.00
2022-12-17T11:09:29.924Z,384.00
2022-12-17T11:10:29.993Z,402.00
2022-12-17T11:11:30.168Z,418.00
2022-12-17T11:12:31.313Z,633.00
2022-12-17T11:13:30.389Z,519.00
2022-12-17T11:14:30.505Z,402.00
2022-12-17T11:15:30.608Z,498.00
2022-12-17T11:16:30.744Z,452.00
2022-12-17T11:17:30.860Z,602.00
2022-12-17T11:18:30.970Z,694.00
2022-12-17T11:19:31.088Z,564.00
2022-12-17T11:20:31.208Z,562.00
2022-12-17T11:21:31.332Z,643.00
2022-12-17T11:22:31.447Z,701.00
2022-12-17T11:23:31.573Z,481.00
2022-12-17T11:24:31.677Z,570.00
2022-12-17T11:25:31.797Z,688.00
2022-12-17T11:26:31.911Z,534.00
2022-12-17T11:27:32.029Z,487.00
2022-12-17T11:28:32.945Z,372.00
2022-12-17T11:29:33.114Z,524.00
2022-12-17T11:30:32.414Z,603.00
2022-12-17T11:31:32.657Z,584.00
2022-12-17T11:32:32.710Z,596.00
2022-12-17T11:33:32.812Z,554.00
2022-12-17T11:34:33.061Z,584.00
2022-12-17T11:35:33.085Z,473.00
2022-12-17T11:36:38.685Z,448.00
2022-12-17T11:37:34.340Z,551.00
2022-12-17T11:38:33.595Z,509.00
2022-12-17T11:39:33.564Z,539.00
2022-12-17T11:40:33.703Z,519.00
2022-12-17T11:41:33.855Z,502.00
2022-12-17T11:42:33.954Z,516.00
2022-12-17T11:43:34.108Z,406.00
2022-12-17T11:44:34.990Z,457.00
2022-12-17T11:45:34.552Z,521.00
2022-12-17T11:46:34.526Z,430.00
2022-12-17T11:47:34.683Z,447.00
2022-12-17T11:48:35.100Z,460.00
2022-12-17T11:49:34.884Z,403.00
2022-12-17T11:50:35.026Z,373.00
2022-12-17T11:51:35.160Z,387.00
2022-12-17T11:52:35.302Z,382.00
2022-12-17T11:53:35.553Z,370.00
2022-12-17T11:54:35.582Z,362.00
2022-12-17T11:55:35.835Z,357.00
2022-12-17T11:56:35.828Z,497.00
2022-12-17T11:57:35.953Z,455.00
2022-12-17T11:58:36.385Z,520.00
2022-12-17T11:59:36.191Z,385.00
2022-12-17T12:00:36.320Z,371.00
2022-12-17T12:01:36.605Z,425.00
2022-12-17T12:02:36.632Z,434.00
2022-12-17T12:03:36.742Z,387.00
2022-12-17T12:04:36.813Z,355.00
2022-12-17T12:05:36.880Z,447.00
2022-12-17T12:06:37.036Z,420.00
2022-12-17T12:07:37.190Z,351.00
2022-12-17T12:08:37.539Z,396.00
2022-12-17T12:09:37.410Z,397.00
2022-12-17T12:10:37.509Z,386.00
2022-12-17T12:11:37.653Z,358.00
2022-12-17T12:12:37.748Z,313.00
2022-12-17T12:13:37.861Z,529.00
2022-12-17T12:14:38.772Z,348.00
2022-12-17T12:15:38.933Z,300.00
2022-12-17T12:16:43.529Z,305.00
2022-12-17T12:17:39.328Z,373.00
2022-12-17T12:18:38.825Z,328.00
2022-12-17T12:19:38.568Z,401.00
2022-12-17T12:20:38.691Z,376.00
2022-12-17T12:21:38.847Z,391.00
2022-12-17T12:22:38.968Z,330.00
2022-12-17T12:23:39.117Z,434.00
2022-12-17T12:24:39.178Z,502.00
2022-12-17T12:25:39.356Z,416.00
2022-12-17T12:26:39.467Z,336.00
2022-12-17T12:27:42.871Z,369.00
2022-12-17T12:28:39.976Z,387.00
2022-12-17T12:29:39.847Z,328.00
2022-12-17T12:30:39.972Z,333.00
2022-12-17T12:31:40.125Z,310.00
2022-12-17T12:32:40.195Z,478.00
2022-12-17T12:33:40.342Z,336.00
2022-12-17T12:34:40.507Z,259.00
2022-12-17T12:35:40.606Z,314.00
2022-12-17T12:36:40.736Z,333.00
2022-12-17T12:37:40.828Z,410.00
2022-12-17T12:38:45.915Z,401.00
2022-12-17T12:39:42.104Z,285.00
2022-12-17T12:40:41.262Z,342.00
2022-12-17T12:41:41.381Z,398.00
2022-12-17T12:42:41.483Z,279.00
2022-12-17T12:43:41.616Z,314.00
2022-12-17T12:44:46.968Z,327.00
2022-12-17T12:45:42.901Z,293.00
2022-12-17T12:46:41.968Z,342.00
2022-12-17T12:47:42.074Z,316.00
2022-12-17T12:48:42.175Z,353.00
2022-12-17T12:49:42.294Z,310.00
2022-12-17T12:50:42.434Z,253.00
2022-12-17T12:51:42.518Z,271.00
2022-12-17T12:52:42.708Z,279.00
2022-12-17T12:53:42.798Z,250.00
2022-12-17T12:54:42.970Z,237.00
2022-12-17T12:55:44.093Z,252.00
2022-12-17T12:56:43.232Z,320.00
2022-12-17T12:57:43.391Z,318.00
2022-12-17T12:58:43.579Z,306.00
2022-12-17T12:59:43.684Z,300.00
2022-12-17T13:00:43.983Z,389.00
2022-12-17T13:01:44.160Z,328.00
2022-12-17T13:02:44.206Z,278.00
2022-12-17T13:03:44.287Z,281.00
2022-12-17T13:04:44.387Z,286.00
2022-12-17T13:05:44.538Z,182.00
2022-12-17T13:06:44.606Z,188.00
2022-12-17T13:07:44.729Z,210.00
2022-12-17T13:08:44.863Z,249.00
2022-12-17T13:09:44.976Z,276.00
2022-12-17T13:10:45.199Z,210.00
2022-12-17T13:11:45.244Z,228.00
2022-12-17T13:12:45.345Z,288.00
2022-12-17T13:13:45.491Z,282.00
2022-12-17T13:14:45.620Z,336.00
2022-12-17T13:15:45.728Z,302.00
2022-12-17T13:16:45.911Z,259.00
2022-12-17T13:17:45.995Z,288.00
2022-12-17T13:18:46.115Z,342.00
2022-12-17T13:19:46.208Z,329.00
2022-12-17T13:20:46.345Z,232.00
2022-12-17T13:21:46.467Z,305.00
2022-12-17T13:22:47.539Z,275.00
2022-12-17T13:23:46.745Z,256.00
2022-12-17T13:24:46.869Z,375.00
2022-12-17T13:25:46.977Z,342.00
2022-12-17T13:26:47.105Z,295.00
2022-12-17T13:27:47.217Z,298.00
2022-12-17T13:28:47.328Z,357.00
2022-12-17T13:29:47.488Z,241.00
2022-12-17T13:30:47.569Z,215.00
2022-12-17T13:31:47.702Z,293.00
2022-12-17T13:32:47.801Z,231.00
2022-12-17T13:33:47.925Z,327.00
2022-12-17T13:34:48.043Z,281.00
2022-12-17T13:35:48.164Z,265.00
2022-12-17T13:36:48.278Z,251.00
2022-12-17T13:37:48.407Z,233.00
2022-12-17T13:38:48.553Z,189.00
2022-12-17T13:39:48.675Z,186.00
2022-12-17T13:40:49.740Z,165.00
2022-12-17T13:41:48.896Z,173.00
2022-12-17T13:42:49.018Z,180.00
2022-12-17T13:43:49.153Z,188.00
2022-12-17T13:44:49.234Z,166.00
2022-12-17T13:45:49.386Z,157.00
2022-12-17T13:46:49.499Z,191.00
2022-12-17T13:47:49.594Z,135.00
2022-12-17T13:48:49.765Z,170.00
2022-12-17T13:50:10.171Z,163.00
2022-12-17T13:50:51.060Z,208.00
2022-12-17T13:51:50.105Z,166.00
2022-12-17T13:52:50.231Z,177.00
2022-12-17T13:53:51.274Z,143.00
2022-12-17T13:54:50.572Z,173.00
2022-12-17T13:55:50.591Z,150.00
2022-12-17T13:56:50.706Z,163.00
2022-12-17T13:57:50.814Z,145.00
2022-12-17T13:58:51.292Z,143.00
2022-12-17T13:59:51.071Z,200.00
2022-12-17T14:00:51.299Z,195.00
2022-12-17T14:01:51.424Z,218.00
2022-12-17T14:02:51.542Z,188.00
2022-12-17T14:04:07.617Z,271.00
2022-12-17T14:04:52.715Z,161.00
2022-12-17T14:05:51.841Z,218.00
2022-12-17T14:06:51.950Z,184.00
2022-12-17T14:07:52.070Z,186.00
2022-12-17T14:08:52.192Z,176.00
2022-12-17T14:09:52.310Z,161.00
2022-12-17T14:10:52.442Z,165.00
2022-12-17T14:11:52.587Z,156.00
2022-12-17T14:12:52.660Z,161.00
2022-12-17T14:13:52.767Z,183.00
2022-12-17T14:14:52.880Z,176.00
2022-12-17T14:15:53.017Z,157.00
2022-12-17T14:16:53.195Z,142.00
2022-12-17T14:17:53.280Z,141.00
2022-12-17T14:18:53.330Z,138.00
2022-12-17T14:19:53.561Z,141.00
2022-12-17T14:20:54.473Z,136.00
2022-12-17T14:21:53.778Z,127.00
2022-12-17T14:22:53.984Z,127.00
2022-12-17T14:23:54.138Z,129.00
2022-12-17T14:24:54.224Z,132.00
2022-12-17T14:25:54.346Z,130.00
2022-12-17T14:26:54.479Z,126.00
2022-12-17T14:27:54.641Z,120.00
2022-12-17T14:28:54.791Z,112.00
2022-12-17T14:29:54.837Z,105.00
2022-12-17T14:31:25.547Z,105.00
2022-12-17T14:31:56.140Z,103.00
2022-12-17T14:32:55.191Z,101.00
2022-12-17T14:33:55.307Z,100.00
2022-12-17T14:35:00.421Z,101.00
2022-12-17T14:35:57.032Z,96.00
2022-12-17T14:36:55.735Z,96.00
2022-12-17T14:37:55.894Z,96.00
2022-12-17T14:38:57.614Z,91.00
2022-12-17T14:39:56.200Z,91.00
2022-12-17T14:40:56.245Z,93.00
2022-12-17T14:41:56.365Z,90.00
2022-12-17T14:42:56.497Z,84.00
2022-12-17T14:43:56.615Z,82.00
2022-12-17T14:44:56.723Z,79.00
2022-12-17T14:45:56.925Z,78.00
2022-12-17T14:46:56.955Z,74.00
2022-12-17T14:47:57.075Z,71.00
2022-12-17T14:48:57.199Z,70.00
2022-12-17T14:49:57.312Z,67.00
2022-12-17T14:50:57.433Z,64.00
2022-12-17T14:51:57.541Z,62.00
2022-12-17T14:52:57.924Z,61.00
2022-12-17T14:53:57.792Z,59.00
2022-12-17T14:54:57.903Z,58.00
2022-12-17T14:55:58.039Z,55.00
2022-12-17T14:56:58.177Z,54.00
2022-12-17T14:57:58.302Z,48.00
2022-12-17T14:58:58.442Z,47.00
2022-12-17T14:59:58.571Z,45.00
2022-12-17T15:00:58.761Z,45.00
2022-12-17T15:01:58.900Z,42.00
2022-12-17T15:02:59.117Z,39.00
2022-12-17T15:03:59.136Z,38.00
2022-12-17T15:04:59.191Z,35.00
2022-12-17T15:05:59.340Z,36.00
2022-12-17T15:06:59.484Z,31.00
2022-12-17T15:07:59.593Z,30.00
2022-12-17T15:08:59.704Z,27.00
2022-12-17T15:09:59.822Z,29.00
2022-12-17T15:10:59.942Z,25.00
2022-12-17T15:12:00.063Z,25.00
2022-12-17T15:13:00.178Z,21.00
2022-12-17T15:14:00.288Z,20.00
2022-12-17T15:15:00.430Z,20.00
2022-12-17T15:16:00.550Z,17.00
2022-12-17T15:17:00.756Z,16.00
2022-12-17T15:18:00.844Z,17.00
2022-12-17T15:19:00.951Z,13.00
2022-12-17T15:20:01.115Z,13.00
2022-12-17T15:21:01.250Z,14.00
2022-12-17T15:22:01.358Z,10.00
2022-12-17T15:23:01.546Z,6.00
2022-12-17T15:24:01.670Z,10.00
2022-12-17T15:25:01.815Z,5.00
2022-12-17T15:26:01.958Z,4.00
2022-12-17T15:27:02.053Z,4.00
2022-12-17T15:28:02.187Z,2.00
2022-12-17T15:29:02.269Z,5.00
2022-12-17T15:30:02.378Z,5.00
2022-12-17T15:31:02.548Z,4.00
2022-12-17T15:32:02.600Z,2.00
2022-12-17T15:33:02.720Z,3.00
2022-12-17T15:34:02.836Z,1.00
2022-12-17T15:35:02.947Z,1.00
2022-12-17T15:36:03.050Z,2.00
2022-12-17T15:37:03.228Z,2.00
2022-12-17T15:38:04.415Z,0.00
2022-12-17T15:39:03.484Z,1.00
2022-12-17T15:40:03.670Z,1.00
2022-12-17T15:41:03.773Z,1.00
2022-12-17T15:42:03.966Z,1.00
2022-12-17T15:43:06.402Z,0.00
2022-12-17T15:44:04.243Z,0.00
2022-12-17T15:45:04.381Z,0.00
2022-12-17T15:46:04.520Z,0.00
2022-12-17T15:47:04.619Z,0.00
2022-12-17T15:48:04.715Z,0.00
2022-12-17T15:49:04.901Z,0.00
2022-12-17T15:50:04.962Z,0.00
2022-12-17T15:51:05.103Z,0.00
2022-12-17T15:52:05.249Z,0.00
2022-12-17T15:53:05.383Z,0.00
2022-12-17T15:54:05.543Z,0.00
2022-12-17T15:55:05.702Z,0.00
2022-12-17T15:56:05.887Z,0.00
2022-12-17T15:57:05.982Z,0.00
2022-12-17T15:58:06.181Z,0.00
2022-12-17T15:59:06.269Z,0.00
2022-12-17T16:00:06.413Z,0.00
2022-12-17T16:01:06.628Z,0.00
2022-12-17T16:12:28.210Z,0.00
2022-12-17T16:13:28.301Z,0.00
2022-12-17T16:14:28.449Z,0.00
2022-12-17T16:15:28.732Z,0.00
2022-12-17T16:16:28.811Z,0.00
2022-12-17T16:17:28.915Z,0.00
2022-12-17T16:18:29.010Z,0.00
2022-12-17T16:19:29.113Z,0.00
2022-12-17T16:20:29.255Z,0.00
2022-12-17T16:21:29.463Z,0.00
2022-12-17T16:22:29.528Z,0.00
2022-12-17T16:23:29.695Z,0.00
2022-12-17T16:24:29.787Z,0.00
2022-12-17T16:25:29.977Z,0.00
2022-12-17T16:26:30.056Z,0.00
2022-12-17T16:27:30.235Z,0.00
2022-12-17T16:28:30.338Z,0.00
2022-12-17T16:29:30.480Z,0.00
2022-12-17T16:30:30.590Z,0.00
2022-12-17T16:31:30.784Z,0.00
2022-12-17T16:32:36.116Z,0.00
2022-12-17T16:33:35.605Z,0.00
2022-12-17T16:34:31.085Z,0.00
2022-12-17T16:35:31.255Z,0.00
2022-12-17T16:36:31.356Z,0.00
2022-12-17T16:37:31.468Z,0.00
2022-12-17T16:38:31.561Z,0.00
2022-12-17T16:39:31.752Z,0.00
2022-12-17T16:40:31.865Z,0.00
2022-12-17T16:41:31.983Z,0.00
2022-12-17T16:42:32.144Z,0.00
2022-12-17T16:43:32.339Z,0.00
2022-12-17T16:44:32.410Z,0.00
2022-12-17T16:45:32.553Z,0.00
2022-12-17T16:46:32.760Z,0.00
2022-12-17T16:47:32.816Z,0.00
2022-12-17T16:48:32.953Z,0.00
2022-12-17T16:49:33.109Z,0.00
2022-12-17T16:50:33.239Z,0.00
2022-12-17T16:51:33.416Z,0.00
2022-12-17T16:52:34.463Z,0.00
2022-12-17T16:53:34.617Z,0.00
2022-12-17T16:54:34.776Z,0.00
2022-12-17T16:55:34.002Z,0.00
2022-12-17T16:56:39.713Z,0.00
2022-12-17T16:57:35.281Z,0.00
2022-12-17T16:58:34.583Z,0.00
2022-12-17T16:59:34.532Z,0.00
2022-12-17T17:00:34.625Z,0.00
2022-12-17T17:01:34.899Z,0.00
2022-12-17T17:02:35.090Z,0.00
2022-12-17T17:03:35.084Z,0.00
2022-12-17T17:04:35.243Z,0.00
2022-12-17T17:05:35.299Z,0.00
2022-12-17T17:06:35.406Z,0.00
2022-12-17T17:07:35.489Z,0.00
2022-12-17T17:08:36.021Z,0.00
2022-12-17T17:09:35.842Z,0.00
2022-12-17T17:10:35.910Z,0.00
2022-12-17T17:11:36.058Z,0.00
2022-12-17T17:12:36.207Z,0.00